createdAt,value
2019-04-10T00:01:48.911Z,66.70
2019-04-10T00:04:23.044Z,66.30
2019-04-10T00:06:54.145Z,66.90
2019-04-10T00:09:25.261Z,66.70
2019-04-10T00:11:55.294Z,67.10
2019-04-10T00:14:26.114Z,67.10
2019-04-10T00:16:56.519Z,67.50
2019-04-10T00:19:26.740Z,67.80
2019-04-10T00:21:57.714Z,67.50
2019-04-10T00:24:28.198Z,67.30
2019-04-10T00:26:58.515Z,67.50
2019-04-10T00:29:28.735Z,68.20
2019-04-10T00:32:01.399Z,68.70
2019-04-10T00:34:30.264Z,68.90
2019-04-10T00:37:00.260Z,67.80
2019-04-10T00:39:30.675Z,68.20
2019-04-10T00:42:00.919Z,68.20
2019-04-10T00:44:31.948Z,68.40
2019-04-10T00:47:02.439Z,68.40
2019-04-10T00:49:33.487Z,68.40
2019-04-10T00:52:03.894Z,68.50
2019-04-10T00:54:34.902Z,68.90
2019-04-10T00:57:05.252Z,68.30
2019-04-10T00:59:35.295Z,69.00
2019-04-10T01:02:05.286Z,67.90
2019-04-10T01:04:36.157Z,68.00
2019-04-10T01:07:06.145Z,68.10
2019-04-10T01:09:36.237Z,68.40
2019-04-10T01:12:06.201Z,68.50
2019-04-10T01:14:36.173Z,68.70
2019-04-10T01:17:06.287Z,69.00
2019-04-10T01:19:36.401Z,69.30
2019-04-10T01:22:06.595Z,70.00
2019-04-10T01:24:37.623Z,68.90
2019-04-10T01:27:07.668Z,70.10
2019-04-10T01:29:37.783Z,69.30
2019-04-10T01:32:07.801Z,70.30
2019-04-10T01:34:37.989Z,69.30
2019-04-10T01:37:08.336Z,69.70
2019-04-10T01:39:38.421Z,70.00
2019-04-10T01:42:08.430Z,69.50
2019-04-10T01:44:38.615Z,69.40
2019-04-10T01:47:08.488Z,70.00
2019-04-10T01:49:38.452Z,69.80
2019-04-10T01:52:08.927Z,69.80
2019-04-10T01:54:39.547Z,69.60
2019-04-10T01:57:10.344Z,71.00
2019-04-10T01:59:42.403Z,69.70
2019-04-10T02:02:30.244Z,70.60
2019-04-10T02:05:00.658Z,70.00
2019-04-10T02:07:31.891Z,71.00
2019-04-10T02:10:01.969Z,70.80
2019-04-10T02:12:31.910Z,71.00
2019-04-10T02:15:02.949Z,70.60
2019-04-10T02:17:33.029Z,71.50
2019-04-10T02:20:03.093Z,71.40
2019-04-10T02:22:33.024Z,70.40
2019-04-10T02:25:03.398Z,71.70
2019-04-10T02:27:34.312Z,72.30
2019-04-10T02:30:05.247Z,70.40
2019-04-10T02:32:37.768Z,70.60
2019-04-10T02:35:10.575Z,71.20
2019-04-10T02:37:41.563Z,71.30
2019-04-10T02:40:12.847Z,70.90
2019-04-10T02:42:43.304Z,71.60
2019-04-10T02:45:15.493Z,71.50
2019-04-10T02:47:47.437Z,71.60
2019-04-10T02:50:18.795Z,72.20
2019-04-10T02:52:50.549Z,72.40
2019-04-10T02:55:20.499Z,71.70
2019-04-10T02:57:51.732Z,71.60
2019-04-10T03:00:22.451Z,72.20
2019-04-10T03:05:27.093Z,72.40
2019-04-10T03:07:58.220Z,72.20
2019-04-10T03:10:37.147Z,73.10
2019-04-10T03:13:00.768Z,72.20
2019-04-10T03:15:31.470Z,72.50
2019-04-10T03:18:02.089Z,73.10
2019-04-10T03:20:32.287Z,71.80
2019-04-10T03:23:02.565Z,72.40
2019-04-10T03:25:37.189Z,73.40
2019-04-10T03:28:09.097Z,73.00
2019-04-10T03:30:41.242Z,73.50
2019-04-10T03:33:31.107Z,73.80
2019-04-10T03:36:00.576Z,74.80
2019-04-10T03:38:32.067Z,75.00
2019-04-10T03:41:02.069Z,75.80
2019-04-10T03:43:32.228Z,76.00
2019-04-10T03:46:03.296Z,75.90
2019-04-10T03:48:33.776Z,76.00
2019-04-10T03:51:04.066Z,76.00
2019-04-10T03:53:34.275Z,76.00
2019-04-10T03:56:05.299Z,76.20
2019-04-10T03:58:38.436Z,76.80
2019-04-10T04:01:08.890Z,77.80
2019-04-10T04:03:38.924Z,76.30
2019-04-10T04:06:09.220Z,76.50
2019-04-10T04:08:39.542Z,77.90
2019-04-10T04:11:09.524Z,78.20
2019-04-10T04:13:39.757Z,77.40
2019-04-10T04:16:10.862Z,77.90
2019-04-10T04:18:41.503Z,78.00
2019-04-10T04:21:12.312Z,78.20
2019-04-10T04:23:42.683Z,78.40
2019-04-10T04:26:12.834Z,77.40
2019-04-10T04:28:43.964Z,77.50
2019-04-10T04:31:14.326Z,78.00
2019-04-10T04:33:44.794Z,76.40
2019-04-10T04:36:15.946Z,77.30
2019-04-10T04:38:46.547Z,77.10
2019-04-10T04:41:17.418Z,77.60
2019-04-10T04:43:48.803Z,77.90
2019-04-10T04:46:20.466Z,76.80
2019-04-10T04:48:50.573Z,78.00
2019-04-10T04:51:21.871Z,77.50
2019-04-10T04:53:52.422Z,76.40
2019-04-10T04:56:22.720Z,76.20
2019-04-10T04:58:53.804Z,77.10
2019-04-10T05:01:23.905Z,76.90
2019-04-10T05:03:54.816Z,77.00
2019-04-10T05:06:25.177Z,76.10
2019-04-10T05:08:55.116Z,77.20
2019-04-10T05:11:26.536Z,77.10
2019-04-10T05:13:57.297Z,76.80
2019-04-10T05:16:27.481Z,76.50
2019-04-10T05:18:57.765Z,77.10
2019-04-10T05:21:27.990Z,76.50
2019-04-10T05:23:57.967Z,76.50
2019-04-10T05:26:28.056Z,76.60
2019-04-10T05:28:58.131Z,76.70
2019-04-10T05:31:28.153Z,76.90
2019-04-10T05:33:58.191Z,76.30
2019-04-10T05:36:31.728Z,77.00
2019-04-10T05:39:02.177Z,76.70
2019-04-10T05:41:32.261Z,77.10
2019-04-10T05:44:02.792Z,76.70
2019-04-10T05:46:33.192Z,76.70
2019-04-10T05:49:04.350Z,76.50
2019-04-10T05:51:34.657Z,76.30
2019-04-10T05:54:04.886Z,76.90
2019-04-10T05:56:35.048Z,77.10
2019-04-10T05:59:05.284Z,76.90
2019-04-10T06:01:39.559Z,76.60
2019-04-10T06:04:07.699Z,77.00
2019-04-10T06:06:38.711Z,76.90
2019-04-10T06:09:09.549Z,77.20
2019-04-10T06:11:42.384Z,77.30
2019-04-10T06:14:11.428Z,76.70
2019-04-10T06:16:42.601Z,76.30
2019-04-10T06:19:13.054Z,76.80
2019-04-10T06:21:44.010Z,77.50
2019-04-10T06:24:14.499Z,77.80
2019-04-10T06:26:45.783Z,77.60
2019-04-10T06:29:16.969Z,77.30
2019-04-10T06:31:47.259Z,76.80
2019-04-10T06:34:18.718Z,76.80
2019-04-10T06:36:49.454Z,77.30
2019-04-10T06:39:20.524Z,76.70
2019-04-10T06:41:54.617Z,76.40
2019-04-10T06:44:25.828Z,75.30
2019-04-10T06:46:57.055Z,75.70
2019-04-10T06:49:27.445Z,75.80
2019-04-10T06:51:57.741Z,76.50
2019-04-10T06:54:28.894Z,75.90
2019-04-10T06:56:59.066Z,76.30
2019-04-10T06:59:30.354Z,75.40
2019-04-10T07:02:13.147Z,76.10
2019-04-10T07:04:44.255Z,75.40
2019-04-10T07:07:09.337Z,76.10
2019-04-10T07:09:35.938Z,75.90
2019-04-10T07:12:06.183Z,75.60
2019-04-10T07:14:37.736Z,75.60
2019-04-10T07:17:09.265Z,74.70
2019-04-10T07:19:41.489Z,75.20
2019-04-10T07:22:14.186Z,75.40
2019-04-10T07:24:44.050Z,75.00
2019-04-10T07:27:14.150Z,75.20
2019-04-10T07:29:44.626Z,74.90
2019-04-10T07:32:14.989Z,74.70
2019-04-10T07:34:45.096Z,75.20
2019-04-10T07:37:18.479Z,74.60
2019-04-10T07:39:46.813Z,74.60
2019-04-10T07:42:26.811Z,74.50
2019-04-10T07:44:48.607Z,75.30
2019-04-10T07:47:19.603Z,75.00
2019-04-10T07:49:52.557Z,74.70
2019-04-10T07:52:23.936Z,73.70
2019-04-10T07:54:54.571Z,73.70
2019-04-10T07:57:25.016Z,74.20
2019-04-10T07:59:55.063Z,73.60
2019-04-10T08:02:25.499Z,73.90
2019-04-10T08:04:55.949Z,73.40
2019-04-10T08:07:30.402Z,74.30
2019-04-10T08:09:57.521Z,73.80
2019-04-10T08:12:37.654Z,73.40
2019-04-10T08:15:00.583Z,73.80
2019-04-10T08:17:32.413Z,74.80
2019-04-10T08:20:03.688Z,74.10
2019-04-10T08:22:34.961Z,74.00
2019-04-10T08:25:06.520Z,74.20
2019-04-10T08:27:36.679Z,73.80
2019-04-10T08:30:07.841Z,73.20
2019-04-10T08:32:50.912Z,73.40
2019-04-10T08:35:11.220Z,74.60
2019-04-10T08:37:41.563Z,72.40
2019-04-10T08:40:11.655Z,71.20
2019-04-10T08:42:44.917Z,71.80
2019-04-10T08:45:14.990Z,71.20
2019-04-10T08:47:45.283Z,71.90
2019-04-10T08:50:15.649Z,72.20
2019-04-10T08:52:46.528Z,72.80
2019-04-10T08:55:17.743Z,71.50
2019-04-10T08:57:48.148Z,72.80
2019-04-10T09:00:18.627Z,73.10
2019-04-10T09:02:52.604Z,72.70
2019-04-10T09:05:23.721Z,72.70
2019-04-10T09:07:54.718Z,72.30
2019-04-10T09:10:26.025Z,73.70
2019-04-10T09:12:59.993Z,73.80
2019-04-10T09:15:30.375Z,72.90
2019-04-10T09:18:01.841Z,72.80
2019-04-10T09:20:33.054Z,71.80
2019-04-10T09:23:27.782Z,71.90
2019-04-10T09:25:35.358Z,72.50
2019-04-10T09:28:06.440Z,72.50
2019-04-10T09:30:37.269Z,72.60
2019-04-10T09:33:18.702Z,72.60
2019-04-10T09:35:40.469Z,73.10
2019-04-10T09:38:10.644Z,72.10
2019-04-10T09:40:40.651Z,71.90
2019-04-10T09:43:11.331Z,72.10
2019-04-10T09:45:41.799Z,70.50
2019-04-10T09:48:12.791Z,70.00
2019-04-10T09:50:43.852Z,70.40
2019-04-10T09:53:14.972Z,70.60
2019-04-10T09:55:45.155Z,69.30
2019-04-10T09:58:15.199Z,70.30
2019-04-10T10:00:45.840Z,69.80
2019-04-10T10:03:15.873Z,68.10
2019-04-10T10:05:46.662Z,66.30
2019-04-10T10:08:16.780Z,69.90
2019-04-10T10:10:47.205Z,70.40
2019-04-10T10:13:17.511Z,70.30
2019-04-10T10:15:47.530Z,70.00
2019-04-10T10:18:17.729Z,69.70
2019-04-10T10:20:48.175Z,68.40
2019-04-10T10:23:18.356Z,69.40
2019-04-10T10:25:48.289Z,69.40
2019-04-10T10:28:18.768Z,68.60
2019-04-10T10:30:51.439Z,66.90
2019-04-10T10:33:21.922Z,67.80
2019-04-10T10:35:52.168Z,69.80
2019-04-10T10:38:23.159Z,67.80
2019-04-10T10:40:53.542Z,67.80
2019-04-10T10:43:24.561Z,68.00
2019-04-10T10:45:55.437Z,69.10
2019-04-10T10:48:25.585Z,68.30
2019-04-10T10:50:56.205Z,66.50
2019-04-10T10:53:26.240Z,66.80
2019-04-10T10:55:56.264Z,67.10
2019-04-10T10:58:26.247Z,66.20
2019-04-10T11:00:57.552Z,68.20
2019-04-10T11:03:27.971Z,67.30
2019-04-10T11:05:58.272Z,66.40
2019-04-10T11:08:29.474Z,68.10
2019-04-10T11:11:00.882Z,66.10
2019-04-10T11:13:31.431Z,66.40
2019-04-10T11:16:05.117Z,66.70
2019-04-10T11:18:33.192Z,66.90
2019-04-10T11:21:08.024Z,66.40
2019-04-10T11:23:36.282Z,65.10
2019-04-10T11:26:06.715Z,66.20
2019-04-10T11:28:37.002Z,65.10
2019-04-10T11:31:07.150Z,65.90
2019-04-10T11:33:39.712Z,65.50
2019-04-10T11:36:09.877Z,63.40
2019-04-10T11:38:39.912Z,65.10
2019-04-10T11:41:09.927Z,64.70
2019-04-10T11:43:41.612Z,64.30
2019-04-10T11:46:13.582Z,64.70
2019-04-10T11:48:45.434Z,64.10
2019-04-10T11:51:16.499Z,64.70
2019-04-10T11:53:48.707Z,64.80
2019-04-10T11:56:19.313Z,64.10
2019-04-10T11:58:55.854Z,63.00
2019-04-10T12:01:22.956Z,64.60
2019-04-10T12:03:56.286Z,65.10
2019-04-10T12:06:26.149Z,65.60
2019-04-10T12:09:21.947Z,64.70
2019-04-10T12:11:28.894Z,65.40
2019-04-10T12:13:59.200Z,66.50
2019-04-10T12:16:29.516Z,68.00
2019-04-10T12:18:59.758Z,66.90
2019-04-10T12:21:30.001Z,66.00
2019-04-10T12:24:01.177Z,64.50
2019-04-10T12:26:31.755Z,65.20
2019-04-10T12:29:02.531Z,65.30
2019-04-10T12:31:33.236Z,65.00
2019-04-10T12:34:04.349Z,66.10
2019-04-10T12:36:34.607Z,66.90
2019-04-10T12:39:06.549Z,63.80
2019-04-10T12:41:36.727Z,65.20
2019-04-10T12:44:07.490Z,64.60
2019-04-10T12:46:37.873Z,65.00
2019-04-10T12:49:08.168Z,64.70
2019-04-10T12:51:38.436Z,66.00
2019-04-10T12:54:08.517Z,64.60
2019-04-10T12:56:40.086Z,65.60
2019-04-10T12:59:11.182Z,65.50
2019-04-10T13:01:41.648Z,64.30
2019-04-10T13:04:11.866Z,64.80
2019-04-10T13:06:42.293Z,64.40
2019-04-10T13:09:13.405Z,63.60
2019-04-10T13:11:44.828Z,65.30
2019-04-10T13:14:15.135Z,64.00
2019-04-10T13:16:45.286Z,63.20
2019-04-10T13:19:16.543Z,64.70
2019-04-10T13:21:46.741Z,64.50
2019-04-10T13:24:17.392Z,64.50
2019-04-10T13:26:48.158Z,65.80
2019-04-10T13:29:18.394Z,65.40
2019-04-10T13:31:48.787Z,64.40
2019-04-10T13:34:19.772Z,65.50
2019-04-10T13:36:50.212Z,64.80
2019-04-10T13:39:20.727Z,66.30
2019-04-10T13:41:51.109Z,66.80
2019-04-10T13:44:21.188Z,68.80
2019-04-10T13:46:51.289Z,68.80
2019-04-10T13:49:22.013Z,67.50
2019-04-10T13:51:52.058Z,68.00
2019-04-10T13:54:22.815Z,67.90
2019-04-10T13:56:53.183Z,68.90
2019-04-10T13:59:23.297Z,68.50
2019-04-10T14:01:53.349Z,68.40
2019-04-10T14:04:23.363Z,69.80
2019-04-10T14:06:53.666Z,68.30
2019-04-10T14:09:34.401Z,68.20
2019-04-10T14:11:55.645Z,68.50
2019-04-10T14:14:26.714Z,68.30
2019-04-10T14:16:57.282Z,67.40
2019-04-10T14:19:28.024Z,67.90
2019-04-10T14:21:58.005Z,68.30
2019-04-10T14:24:40.435Z,68.60
2019-04-10T14:27:14.126Z,68.50
2019-04-10T14:29:44.874Z,68.90
2019-04-10T14:32:24.758Z,68.60
2019-04-10T14:34:55.129Z,68.70
2019-04-10T14:37:25.832Z,68.60
2019-04-10T14:39:55.978Z,68.70
2019-04-10T14:42:26.634Z,68.70
2019-04-10T14:44:57.190Z,69.30
2019-04-10T14:47:27.629Z,68.30
2019-04-10T14:49:58.118Z,68.80
2019-04-10T14:52:29.248Z,69.20
2019-04-10T14:54:59.827Z,70.10
2019-04-10T14:57:35.319Z,70.30
2019-04-10T15:00:16.824Z,69.90
2019-04-10T15:02:49.232Z,71.90
2019-04-10T15:05:19.276Z,72.00
2019-04-10T15:07:49.333Z,71.30
2019-04-10T15:10:19.463Z,70.70
2019-04-10T15:12:49.890Z,71.60
2019-04-10T15:15:20.573Z,71.10
2019-04-10T15:17:50.819Z,71.70
2019-04-10T15:20:20.963Z,72.10
2019-04-10T15:22:50.967Z,71.60
2019-04-10T15:25:20.992Z,72.60
2019-04-10T15:27:51.688Z,71.50
2019-04-10T15:30:22.294Z,71.60
2019-04-10T15:32:52.617Z,72.20
2019-04-10T15:35:22.866Z,71.90
2019-04-10T15:37:55.716Z,71.00
2019-04-10T15:40:39.539Z,72.00
2019-04-10T15:43:10.754Z,73.30
2019-04-10T15:45:42.121Z,74.30
2019-04-10T15:48:12.554Z,73.20
2019-04-10T15:50:43.420Z,73.10
2019-04-10T15:53:14.669Z,73.00
2019-04-10T15:55:47.703Z,73.20
2019-04-10T15:58:17.665Z,73.40
2019-04-10T16:00:47.844Z,73.40
2019-04-10T16:03:17.888Z,73.40
2019-04-10T16:05:50.489Z,73.00
2019-04-10T16:08:21.476Z,73.40
2019-04-10T16:11:13.877Z,74.40
2019-04-10T16:13:46.602Z,74.20
2019-04-10T16:16:42.280Z,74.80
2019-04-10T16:19:32.927Z,74.40
2019-04-10T16:22:04.582Z,74.70
2019-04-10T16:24:34.636Z,74.60
2019-04-10T16:27:05.616Z,74.70
2019-04-10T16:29:39.066Z,74.90
2019-04-10T16:32:10.587Z,75.40
2019-04-10T16:34:42.877Z,75.10
2019-04-10T16:37:14.921Z,75.10
2019-04-10T16:39:58.493Z,75.00
2019-04-10T16:42:20.315Z,74.70
2019-04-10T16:44:51.245Z,75.10
2019-04-10T16:47:24.423Z,75.60
2019-04-10T16:49:55.233Z,75.30
2019-04-10T16:52:25.354Z,74.50
2019-04-10T16:54:55.565Z,75.80
2019-04-10T16:57:26.741Z,75.80
2019-04-10T16:59:57.412Z,75.10
2019-04-10T17:02:28.399Z,75.30
2019-04-10T17:04:58.557Z,75.20
2019-04-10T17:07:28.632Z,76.10
2019-04-10T17:10:12.871Z,75.40
2019-04-10T17:12:30.607Z,76.20
2019-04-10T17:15:01.726Z,76.00
2019-04-10T17:17:32.552Z,76.10
2019-04-10T17:20:02.697Z,75.50
2019-04-10T17:22:42.320Z,75.70
2019-04-10T17:25:04.603Z,75.60
2019-04-10T17:27:35.356Z,75.50
2019-04-10T17:30:05.645Z,75.60
2019-04-10T17:32:36.304Z,76.40
2019-04-10T17:35:07.670Z,76.90
2019-04-10T17:37:38.268Z,76.90
2019-04-10T17:40:08.999Z,76.90
2019-04-10T17:42:39.410Z,77.10
2019-04-10T17:45:10.110Z,77.60
2019-04-10T17:47:40.937Z,78.90
2019-04-10T17:50:14.027Z,77.80
2019-04-10T17:52:45.162Z,77.90
2019-04-10T17:55:15.584Z,77.60
2019-04-10T17:57:46.411Z,77.80
2019-04-10T18:00:35.591Z,77.90
2019-04-10T18:03:05.707Z,78.70
2019-04-10T18:05:36.980Z,77.50
2019-04-10T18:08:08.372Z,77.80
2019-04-10T18:10:44.744Z,77.50
2019-04-10T18:13:11.482Z,77.30
2019-04-10T18:15:41.732Z,77.40
2019-04-10T18:18:11.981Z,77.60
2019-04-10T18:20:42.223Z,77.70
2019-04-10T18:23:13.345Z,77.60
2019-04-10T18:25:44.449Z,77.90
2019-04-10T18:28:14.823Z,77.80
2019-04-10T18:30:46.012Z,77.50
2019-04-10T18:33:16.351Z,77.50
2019-04-10T18:35:47.053Z,77.40
2019-04-10T18:38:17.447Z,77.40
2019-04-10T18:40:55.720Z,77.70
2019-04-10T18:43:22.239Z,77.80
2019-04-10T18:46:03.306Z,77.60
2019-04-10T18:48:24.964Z,77.40
2019-04-10T18:50:55.063Z,77.40
2019-04-10T18:53:25.447Z,77.60
2019-04-10T18:55:56.634Z,77.80
2019-04-10T18:58:30.301Z,77.60
2019-04-10T19:01:37.518Z,77.30
2019-04-10T19:04:32.808Z,77.30
2019-04-10T19:07:03.544Z,77.50
2019-04-10T19:09:36.678Z,78.20
2019-04-10T19:12:07.022Z,78.80
2019-04-10T19:14:37.230Z,77.60
2019-04-10T19:17:09.084Z,77.80
2019-04-10T19:19:42.180Z,78.10
2019-04-10T19:22:13.099Z,78.50
2019-04-10T19:24:44.106Z,78.20
2019-04-10T19:27:14.337Z,78.00
2019-04-10T19:29:44.558Z,78.40
2019-04-10T19:35:21.484Z,78.10
2019-04-10T19:37:52.857Z,78.30
2019-04-10T19:40:23.542Z,78.70
2019-04-10T19:42:53.716Z,78.90
2019-04-10T19:45:25.851Z,78.80
2019-04-10T19:47:57.031Z,78.80
2019-04-10T19:50:27.677Z,79.20
2019-04-10T19:52:57.811Z,79.40
2019-04-10T19:55:27.858Z,79.10
2019-04-10T19:57:58.456Z,79.40
2019-04-10T20:00:32.636Z,79.00
2019-04-10T20:03:03.674Z,79.20
2019-04-10T20:05:34.134Z,79.50
2019-04-10T20:08:05.181Z,79.80
2019-04-10T20:10:35.566Z,80.20
2019-04-10T20:13:06.819Z,80.30
2019-04-10T20:15:38.388Z,80.70
2019-04-10T20:18:08.802Z,81.20
2019-04-10T20:20:39.481Z,81.50
2019-04-10T20:23:09.756Z,80.90
2019-04-10T20:25:40.825Z,81.20
2019-04-10T20:28:12.258Z,80.60
2019-04-10T20:30:45.635Z,80.50
2019-04-10T20:33:16.649Z,80.30
2019-04-10T20:35:47.105Z,80.60
2019-04-10T20:38:17.630Z,80.60
2019-04-10T20:40:47.923Z,80.60
2019-04-10T20:43:18.583Z,80.40
2019-04-10T20:45:49.683Z,80.90
2019-04-10T20:48:20.383Z,80.60
2019-04-10T20:50:50.808Z,80.70
2019-04-10T20:53:22.100Z,81.10
2019-04-10T20:55:52.500Z,80.70
2019-04-10T20:58:22.502Z,81.60
2019-04-10T21:00:52.939Z,81.30
2019-04-10T21:03:23.250Z,81.40
2019-04-10T21:05:53.846Z,81.90
2019-04-10T21:08:24.253Z,82.10
2019-04-10T21:10:54.815Z,81.90
2019-04-10T21:13:25.402Z,82.10
2019-04-10T21:15:55.448Z,82.50
2019-04-10T21:18:25.676Z,82.80
2019-04-10T21:20:55.899Z,82.30
2019-04-10T21:23:27.150Z,82.40
2019-04-10T21:25:57.503Z,81.80
2019-04-10T21:28:28.320Z,82.20
2019-04-10T21:31:16.048Z,82.20
2019-04-10T21:34:05.590Z,83.00
2019-04-10T21:36:37.095Z,82.30
2019-04-10T21:39:08.032Z,83.20
2019-04-10T21:41:38.993Z,83.30
2019-04-10T21:44:10.220Z,82.80
2019-04-10T21:46:41.008Z,82.40
2019-04-10T21:49:11.429Z,82.80
2019-04-10T21:51:42.736Z,82.50
2019-04-10T21:54:14.120Z,83.30
2019-04-10T21:56:45.113Z,82.70
2019-04-10T21:59:16.681Z,82.50
2019-04-10T22:01:47.087Z,83.20
2019-04-10T22:04:17.340Z,82.90
2019-04-10T22:06:56.665Z,83.40
2019-04-10T22:09:45.856Z,83.40
2019-04-10T22:12:25.860Z,83.80
2019-04-10T22:14:52.636Z,84.20
2019-04-10T22:17:22.751Z,83.60
2019-04-10T22:19:53.167Z,83.60
2019-04-10T22:22:23.595Z,84.00
2019-04-10T22:24:54.734Z,84.30
2019-04-10T22:27:25.535Z,84.00
2019-04-10T22:29:56.318Z,83.70
2019-04-10T22:32:26.932Z,83.30
2019-04-10T22:34:57.222Z,83.40
2019-04-10T22:37:27.790Z,83.60
2019-04-10T22:39:58.700Z,84.00
2019-04-10T22:42:39.445Z,83.60
2019-04-10T22:45:00.637Z,84.10
2019-04-10T22:47:31.583Z,83.40
2019-04-10T22:50:02.963Z,83.10
2019-04-10T22:52:32.994Z,83.60
2019-04-10T22:55:03.675Z,82.90
2019-04-10T22:57:34.800Z,83.60
2019-04-10T23:00:05.423Z,84.20
2019-04-10T23:02:35.615Z,84.20
2019-04-10T23:05:07.676Z,84.40
2019-04-10T23:07:37.811Z,84.10
2019-04-10T23:10:11.155Z,84.50
2019-04-10T23:12:51.209Z,85.10
2019-04-10T23:15:13.313Z,85.30
2019-04-10T23:17:43.416Z,84.70
2019-04-10T23:20:14.364Z,84.30
2019-04-10T23:22:46.027Z,84.50
2019-04-10T23:25:16.603Z,84.80
2019-04-10T23:27:46.899Z,85.10
2019-04-10T23:30:18.692Z,85.20
2019-04-10T23:32:49.813Z,84.90
2019-04-10T23:35:21.173Z,85.00
2019-04-10T23:37:51.269Z,84.50
2019-04-10T23:40:21.489Z,85.00
2019-04-10T23:43:02.938Z,85.10
2019-04-10T23:45:23.883Z,85.10
2019-04-10T23:47:53.940Z,85.30
2019-04-10T23:50:24.229Z,85.20
2019-04-10T23:52:54.476Z,85.30
2019-04-10T23:55:26.002Z,85.40
2019-04-10T23:57:56.322Z,85.50
